Beauregard Regional Airport
KDRI : rendu visible

Aérodrome :











RETROUVEZ-NOUS SUR...

 
LOGIN :

S'inscrire | Disclaimer

   EN    FR    IT 

 









Légende :    VFR   VFR Marginal   IFR   IFR Intensif   IFR Très Intensif
Visi : 
Plafond : 
>= 8 km
>= 3000ft
5 à 8 km
1000 à 3000 ft
1500m à 5 km
500 à 1000 ft
800 à 1500m
200 à 500 ft
< 800m
< 200 ft
Symboles :   Orages  Brouillard  Fortes neiges  Fortes précipitations  Vent > 20 kt






- Altitude de l'aérodrome : 202 ft


KDRI - Beauregard Regional

DERNIER METAR :
  • 301555Z AUTO 04005KT 10SM CLR 28/18 A3011 RMK AO2 T02810180

METARs EXPIRÉS :
  • 301535Z AUTO 06005KT 10SM CLR 27/18 A3011 RMK AO2 T02740178
  • 301515Z AUTO 10004KT 10SM CLR 27/18 A3012 RMK AO2 T02680182
  • 301455Z AUTO 05004KT 10SM CLR 26/18 A3012 RMK AO2 T02630181
  • 301435Z AUTO 06007KT 10SM CLR 26/18 A3012 RMK AO2 T02570181
  • 301415Z AUTO 04004KT 10SM CLR 26/18 A3012 RMK AO2 T02550182
  • 301355Z AUTO 06005KT 10SM CLR 25/18 A3012 RMK AO2 T02460178
  • 301335Z AUTO 06004KT 10SM CLR 24/18 A3011 RMK AO2 T02410181
  • 301315Z AUTO 06004KT 10SM CLR 23/18 A3011 RMK AO2 T02310176

TAF N/A
FIR KZHU / Amérique du Nord



MET'MAP, la Météo Aéronautique d'un coup d'oeil ! - Copyright ORBIFLY Décembre 2007 - Disclaimer

ORBIFLY MET'MAP TEAM :

Programmation & Développement : Alexandra Zaïnal
Sur une idée originale de : Baudouin d'Aumeries
Assistance à la programmation : Marc-Olivier Méhu
Soutien technique & logistique : Manuel Goepfert

Contact : metmap@orbifly.com




SOURCES & CREDITS :

   NOAA       Earth
Advisory